• Join FlightAware (Why Join?)
  • Login
  • US Flag 
04:26PM EDT


 

Airport Tracker/Info


-or-


 

Live Flight TrackerFlight Track Log ✈ N388AC ✈ 07-Nov-2013 ✈ KPBI - KAGS

Flight Track Log - Related Links

Times and Time Zones

All times are in EST time to prevent confusion due to time zone crossing. See the N388AC flight status page for this flight to view local times or setup timezone preferences in your user account.

Time Position Orientation Groundspeed Altitude Reporting Facility
EST Latitude Longitude Course Direction KTS MPH feet Rate Location/Type
08:13AM 26.7789 -80.2236 336° Northwest 266 306 4,600  Level Miami Center
08:14AM 26.8297 -80.2856 313° West 283 326 6,500 1,920 Climbing Miami Center
08:15AM 26.8828 -80.3408 317° Northwest 286 329 8,500 1,920 Climbing Miami Center
08:16AM 26.9550 -80.3756 337° Northwest 281 323 10,400 1,740 Climbing Miami Center
08:17AM 27.0500 -80.4181 338° Northwest 314 361 12,000 1,440 Climbing Miami Center
08:18AM 27.4701 -80.3027 336° Northwest  Level Estimated
08:18AM 27.1450 -80.4561 340° North 344 396 13,300  Level Miami Center
08:19AM 27.2442 -80.4964 340° North 369 425 15,400 2,100 Climbing Miami Center
08:20AM 27.3392 -80.5369 339° North 387 445 17,600 1,980 Climbing Miami Center
08:21AM 27.4467 -80.5847 338° Northwest 403 464 19,400 1,860 Climbing Miami Center
08:22AM 27.5603 -80.6306 340° North 416 479 21,400 1,980 Climbing Miami Center
08:23AM 27.6781 -80.6789 340° North 431 496 23,400 1,980 Climbing Miami Center
08:24AM 27.7956 -80.7300 339° North 441 507 25,400 1,980 Climbing Miami Center
08:25AM 27.9061 -80.8089 328° Northwest 447 514 27,400 1,800 Climbing Miami Center
08:26AM 27.9975 -80.9036 318° Northwest 454 522 29,000 1,500 Climbing Miami Center
08:27AM 28.0989 -81.0039 319° Northwest 465 535 30,500 1,560 Climbing Miami Center
08:28AM 28.2222 -81.0697 335° Northwest 471 542 32,200 1,920 Climbing Miami Center
08:31AM 28.5389 -81.1675 345° North 484 557 37,200 1,980 Climbing Jacksonville Center
08:32AM 28.6686 -81.1936 350° North 478 550 39,000 900 Climbing Jacksonville Center
08:33AM 28.8006 -81.2175 351° North 473 544 39,000  Level Jacksonville Center
08:34AM 28.9364 -81.2414 351° North 479 551 39,000  Level Jacksonville Center
08:35AM 29.0725 -81.2747 348° North 484 557 39,000  Level Jacksonville Center
08:36AM 29.2044 -81.3083 347° North 484 557 39,000  Level Jacksonville Center
08:37AM 29.3386 -81.3394 349° North 489 563 39,000  Level Jacksonville Center
08:38AM 29.4725 -81.3706 349° North 489 563 39,000  Level Jacksonville Center
08:39AM 29.6086 -81.3994 350° North 489 563 39,000  Level Jacksonville Center
08:40AM 29.7444 -81.4333 348° North 489 563 39,000  Level Jacksonville Center
08:41AM 29.8828 -81.4650 349° North 489 563 39,000  Level Jacksonville Center
08:42AM 30.0167 -81.4964 349° North 489 563 39,000  Level Jacksonville Center
08:43AM 30.1653 -81.5303 349° North 489 563 39,000  Level Jacksonville Center
08:44AM 30.3014 -81.5597 349° North 489 563 39,000  Level Jacksonville Center
08:45AM 30.4394 -81.5939 348° North 489 563 39,000  Level Jacksonville Center
08:46AM 30.5714 -81.6236 349° North 489 563 39,000  Level Jacksonville Center
08:47AM 30.7053 -81.6581 348° North 489 563 39,000  Level Jacksonville Center
08:48AM 30.8372 -81.6900 348° North 484 557 39,000  Level Jacksonville Center
08:49AM 30.9689 -81.7222 348° North 484 557 39,000  Level Jacksonville Center
08:50AM 31.1008 -81.7547 348° North 484 557 39,000  Level Jacksonville Center
08:51AM 31.2264 -81.7872 348° North 464 534 39,000  Level Jacksonville Center
08:52AM 31.3539 -81.8172 349° North 454 522 39,000  Level Jacksonville Center
08:53AM 31.4692 -81.8453 348° North 459 528 39,000  Level Jacksonville Center
08:54AM 31.6072 -81.8778 349° North 464 534 39,000  Level Jacksonville Center
08:55AM 31.7347 -81.9081 349° North 464 534 39,000 -660 Level Jacksonville Center
08:56AM 31.8497 -81.9386 347° North 470 541 37,700 -2,160 Descending Jacksonville Center
08:57AM 31.9939 -81.9642 351° North 470 541 34,700 -2,940 Descending Jacksonville Center
08:59AM 32.2653 -81.9558 North 508 585 28,700 -3,000 Descending Atlanta Center
09:00AM 32.4114 -81.9500 North 515 593 25,500 -2,400 Descending Atlanta Center
09:01AM 32.5450 -81.9444 North 504 580 24,000 -900 Descending Atlanta Center
09:02AM 32.6722 -81.9389 North 477 549 23,700 -1,860 Descending Atlanta Center
09:03AM 32.8036 -81.9383 360° North 441 507 20,300 -3,240 Descending Atlanta Center
09:04AM 32.9203 -81.9331 North 428 493 17,300 -3,180 Descending Atlanta Center
09:05AM 33.0289 -81.9253 North 404 465 14,000 -3,120 Descending Atlanta Center
09:06AM 33.1269 -81.9231 North 372 428 11,100 -2,580 Descending Atlanta Center
09:07AM 33.2081 -81.9061 10° North 331 381 8,900 -2,280 Descending Atlanta Center
09:09AM 33.3556 -81.8628 14° North 272 313 4,400 -2,040 Descending Atlanta Center
09:10AM 33.4222 -81.8611 North 248 285 2,900 -1,080 Descending Atlanta Center
09:11AM 33.4644 -81.8897 331° Northwest 197 227 2,300 -540 Descending Atlanta Center
09:12AM 33.4672 -81.9344 274° West 139 160 1,900 -420 Descending Atlanta Center